sensor_id;sensor_type;location;lat;lon;timestamp;P1;durP1;ratioP1;P2;durP2;ratioP2
25497;SDS011;13406;53.380;7.226;2023-08-30T00:01:37;3.90;;;2.63;;
25497;SDS011;13406;53.380;7.226;2023-08-30T00:04:02;3.67;;;2.60;;
25497;SDS011;13406;53.380;7.226;2023-08-30T00:06:28;5.10;;;2.30;;
25497;SDS011;13406;53.380;7.226;2023-08-30T00:08:53;4.50;;;2.70;;
25497;SDS011;13406;53.380;7.226;2023-08-30T00:11:19;4.53;;;2.70;;
25497;SDS011;13406;53.380;7.226;2023-08-30T00:13:44;4.43;;;2.80;;
25497;SDS011;13406;53.380;7.226;2023-08-30T00:16:10;5.70;;;4.07;;
25497;SDS011;13406;53.380;7.226;2023-08-30T00:18:35;5.97;;;4.77;;
25497;SDS011;13406;53.380;7.226;2023-08-30T00:21:00;5.07;;;4.07;;
25497;SDS011;13406;53.380;7.226;2023-08-30T00:23:26;5.10;;;4.47;;
25497;SDS011;13406;53.380;7.226;2023-08-30T00:25:51;6.37;;;5.20;;
25497;SDS011;13406;53.380;7.226;2023-08-30T00:28:17;9.73;;;5.37;;
25497;SDS011;13406;53.380;7.226;2023-08-30T00:30:42;6.20;;;5.30;;
25497;SDS011;13406;53.380;7.226;2023-08-30T00:33:08;6.63;;;5.80;;
25497;SDS011;13406;53.380;7.226;2023-08-30T00:35:33;7.23;;;5.40;;
25497;SDS011;13406;53.380;7.226;2023-08-30T00:37:58;6.33;;;5.57;;
25497;SDS011;13406;53.380;7.226;2023-08-30T00:40:24;9.63;;;5.70;;
25497;SDS011;13406;53.380;7.226;2023-08-30T00:42:50;9.20;;;6.70;;
25497;SDS011;13406;53.380;7.226;2023-08-30T00:45:16;8.07;;;6.73;;
25497;SDS011;13406;53.380;7.226;2023-08-30T00:47:42;7.33;;;6.10;;
25497;SDS011;13406;53.380;7.226;2023-08-30T00:50:07;8.70;;;7.40;;
25497;SDS011;13406;53.380;7.226;2023-08-30T00:52:34;7.80;;;6.50;;
25497;SDS011;13406;53.380;7.226;2023-08-30T00:55:00;7.17;;;6.43;;
25497;SDS011;13406;53.380;7.226;2023-08-30T00:57:25;7.30;;;6.60;;
25497;SDS011;13406;53.380;7.226;2023-08-30T00:59:51;6.77;;;6.07;;
25497;SDS011;13406;53.380;7.226;2023-08-30T01:02:18;7.93;;;6.40;;
25497;SDS011;13406;53.380;7.226;2023-08-30T01:04:44;6.80;;;5.53;;
25497;SDS011;13406;53.380;7.226;2023-08-30T01:07:10;7.63;;;6.83;;
25497;SDS011;13406;53.380;7.226;2023-08-30T01:09:36;8.23;;;6.53;;
25497;SDS011;13406;53.380;7.226;2023-08-30T01:12:17;9.50;;;7.10;;
25497;SDS011;13406;53.380;7.226;2023-08-30T01:14:58;7.97;;;6.47;;
25497;SDS011;13406;53.380;7.226;2023-08-30T01:17:27;8.73;;;6.70;;
25497;SDS011;13406;53.380;7.226;2023-08-30T01:19:58;9.23;;;6.90;;
25497;SDS011;13406;53.380;7.226;2023-08-30T01:28:33;11.37;;;9.10;;
25497;SDS011;13406;53.380;7.226;2023-08-30T01:31:00;9.67;;;8.67;;
25497;SDS011;13406;53.380;7.226;2023-08-30T01:33:27;9.30;;;8.40;;
25497;SDS011;13406;53.380;7.226;2023-08-30T01:35:57;11.50;;;9.27;;
25497;SDS011;13406;53.380;7.226;2023-08-30T01:38:25;9.60;;;8.60;;
25497;SDS011;13406;53.380;7.226;2023-08-30T01:40:53;11.67;;;9.20;;
25497;SDS011;13406;53.380;7.226;2023-08-30T01:43:19;12.07;;;10.93;;
25497;SDS011;13406;53.380;7.226;2023-08-30T01:45:47;11.50;;;9.03;;
25497;SDS011;13406;53.380;7.226;2023-08-30T01:48:16;10.67;;;9.57;;
25497;SDS011;13406;53.380;7.226;2023-08-30T01:50:43;11.63;;;10.27;;
25497;SDS011;13406;53.380;7.226;2023-08-30T01:53:10;11.73;;;10.33;;
25497;SDS011;13406;53.380;7.226;2023-08-30T01:55:38;11.77;;;10.57;;
25497;SDS011;13406;53.380;7.226;2023-08-30T01:58:04;12.43;;;11.13;;
25497;SDS011;13406;53.380;7.226;2023-08-30T02:00:30;13.07;;;11.57;;
25497;SDS011;13406;53.380;7.226;2023-08-30T02:02:56;12.00;;;10.80;;
25497;SDS011;13406;53.380;7.226;2023-08-30T02:05:21;14.37;;;12.97;;
25497;SDS011;13406;53.380;7.226;2023-08-30T02:07:51;13.57;;;11.93;;
25497;SDS011;13406;53.380;7.226;2023-08-30T02:10:24;12.10;;;10.90;;
25497;SDS011;13406;53.380;7.226;2023-08-30T02:12:53;12.40;;;11.20;;
25497;SDS011;13406;53.380;7.226;2023-08-30T02:15:21;12.47;;;11.17;;
25497;SDS011;13406;53.380;7.226;2023-08-30T02:17:49;13.20;;;11.70;;
25497;SDS011;13406;53.380;7.226;2023-08-30T02:20:15;13.63;;;12.23;;
25497;SDS011;13406;53.380;7.226;2023-08-30T02:22:41;13.57;;;12.17;;
25497;SDS011;13406;53.380;7.226;2023-08-30T02:25:06;13.53;;;12.13;;
25497;SDS011;13406;53.380;7.226;2023-08-30T02:27:33;13.73;;;12.40;;
25497;SDS011;13406;53.380;7.226;2023-08-30T02:29:59;14.43;;;12.90;;
25497;SDS011;13406;53.380;7.226;2023-08-30T02:32:25;13.73;;;12.17;;
25497;SDS011;13406;53.380;7.226;2023-08-30T02:34:51;15.33;;;11.83;;
25497;SDS011;13406;53.380;7.226;2023-08-30T02:37:17;12.33;;;11.07;;
25497;SDS011;13406;53.380;7.226;2023-08-30T02:39:43;13.90;;;11.40;;
25497;SDS011;13406;53.380;7.226;2023-08-30T02:42:09;13.97;;;11.53;;
25497;SDS011;13406;53.380;7.226;2023-08-30T02:44:34;11.90;;;10.70;;
25497;SDS011;13406;53.380;7.226;2023-08-30T02:47:00;11.87;;;10.67;;
25497;SDS011;13406;53.380;7.226;2023-08-30T02:49:25;11.40;;;10.13;;
25497;SDS011;13406;53.380;7.226;2023-08-30T02:51:51;11.17;;;9.57;;
25497;SDS011;13406;53.380;7.226;2023-08-30T02:54:16;12.30;;;10.27;;
25497;SDS011;13406;53.380;7.226;2023-08-30T02:56:42;10.50;;;9.20;;
25497;SDS011;13406;53.380;7.226;2023-08-30T02:59:11;12.10;;;10.00;;
25497;SDS011;13406;53.380;7.226;2023-08-30T03:01:37;12.03;;;10.07;;
25497;SDS011;13406;53.380;7.226;2023-08-30T03:04:06;13.40;;;10.80;;
25497;SDS011;13406;53.380;7.226;2023-08-30T03:06:33;11.50;;;10.30;;
25497;SDS011;13406;53.380;7.226;2023-08-30T03:08:59;13.10;;;10.90;;
25497;SDS011;13406;53.380;7.226;2023-08-30T03:11:24;13.43;;;10.40;;
25497;SDS011;13406;53.380;7.226;2023-08-30T03:13:50;11.77;;;10.13;;
25497;SDS011;13406;53.380;7.226;2023-08-30T03:16:16;12.20;;;10.13;;
25497;SDS011;13406;53.380;7.226;2023-08-30T03:18:42;12.10;;;10.00;;
25497;SDS011;13406;53.380;7.226;2023-08-30T03:21:09;11.93;;;10.70;;
25497;SDS011;13406;53.380;7.226;2023-08-30T03:23:35;11.77;;;10.07;;
25497;SDS011;13406;53.380;7.226;2023-08-30T03:26:13;14.03;;;10.57;;
25497;SDS011;13406;53.380;7.226;2023-08-30T03:28:40;11.07;;;9.97;;
25497;SDS011;13406;53.380;7.226;2023-08-30T03:31:20;14.20;;;10.97;;
25497;SDS011;13406;53.380;7.226;2023-08-30T03:33:49;12.50;;;11.20;;
25497;SDS011;13406;53.380;7.226;2023-08-30T03:36:15;12.07;;;10.73;;
25497;SDS011;13406;53.380;7.226;2023-08-30T03:38:42;14.37;;;10.80;;
25497;SDS011;13406;53.380;7.226;2023-08-30T03:41:08;14.37;;;12.27;;
25497;SDS011;13406;53.380;7.226;2023-08-30T03:43:35;14.17;;;10.93;;
25497;SDS011;13406;53.380;7.226;2023-08-30T03:46:01;12.97;;;11.60;;
25497;SDS011;13406;53.380;7.226;2023-08-30T03:48:28;12.50;;;10.77;;
25497;SDS011;13406;53.380;7.226;2023-08-30T03:50:54;15.97;;;12.53;;
25497;SDS011;13406;53.380;7.226;2023-08-30T03:53:22;13.83;;;11.83;;
25497;SDS011;13406;53.380;7.226;2023-08-30T03:55:48;14.30;;;11.23;;
25497;SDS011;13406;53.380;7.226;2023-08-30T03:58:13;13.23;;;10.30;;
25497;SDS011;13406;53.380;7.226;2023-08-30T04:00:39;12.53;;;11.20;;
25497;SDS011;13406;53.380;7.226;2023-08-30T04:03:05;12.93;;;11.17;;
25497;SDS011;13406;53.380;7.226;2023-08-30T04:05:34;14.67;;;12.57;;
25497;SDS011;13406;53.380;7.226;2023-08-30T04:08:01;12.67;;;10.87;;
25497;SDS011;13406;53.380;7.226;2023-08-30T04:10:27;14.30;;;10.10;;
25497;SDS011;13406;53.380;7.226;2023-08-30T04:12:52;15.37;;;11.80;;
25497;SDS011;13406;53.380;7.226;2023-08-30T04:15:18;13.23;;;11.83;;
25497;SDS011;13406;53.380;7.226;2023-08-30T04:17:43;13.57;;;11.60;;
25497;SDS011;13406;53.380;7.226;2023-08-30T04:20:08;12.73;;;11.07;;
25497;SDS011;13406;53.380;7.226;2023-08-30T04:22:35;14.20;;;10.87;;
25497;SDS011;13406;53.380;7.226;2023-08-30T04:25:01;13.03;;;11.63;;
25497;SDS011;13406;53.380;7.226;2023-08-30T04:27:28;13.23;;;10.60;;
25497;SDS011;13406;53.380;7.226;2023-08-30T04:29:53;13.17;;;9.37;;
25497;SDS011;13406;53.380;7.226;2023-08-30T04:32:18;9.80;;;8.80;;
25497;SDS011;13406;53.380;7.226;2023-08-30T04:34:44;10.70;;;9.37;;
25497;SDS011;13406;53.380;7.226;2023-08-30T04:37:09;10.10;;;8.97;;
25497;SDS011;13406;53.380;7.226;2023-08-30T04:39:35;10.83;;;9.50;;
25497;SDS011;13406;53.380;7.226;2023-08-30T04:42:00;10.67;;;9.57;;
25497;SDS011;13406;53.380;7.226;2023-08-30T04:44:27;12.03;;;10.40;;
25497;SDS011;13406;53.380;7.226;2023-08-30T04:46:53;11.57;;;9.40;;
25497;SDS011;13406;53.380;7.226;2023-08-30T04:49:19;9.20;;;8.20;;
25497;SDS011;13406;53.380;7.226;2023-08-30T04:51:44;9.83;;;8.83;;
25497;SDS011;13406;53.380;7.226;2023-08-30T04:54:10;11.30;;;9.30;;
25497;SDS011;13406;53.380;7.226;2023-08-30T04:56:35;11.87;;;10.30;;
25497;SDS011;13406;53.380;7.226;2023-08-30T04:59:01;11.60;;;8.77;;
25497;SDS011;13406;53.380;7.226;2023-08-30T05:01:29;11.00;;;8.47;;
25497;SDS011;13406;53.380;7.226;2023-08-30T05:03:55;10.63;;;9.00;;
25497;SDS011;13406;53.380;7.226;2023-08-30T05:06:20;11.73;;;9.33;;
25497;SDS011;13406;53.380;7.226;2023-08-30T05:08:45;11.77;;;9.57;;
25497;SDS011;13406;53.380;7.226;2023-08-30T05:11:11;13.03;;;9.03;;
25497;SDS011;13406;53.380;7.226;2023-08-30T05:13:36;10.03;;;9.00;;
25497;SDS011;13406;53.380;7.226;2023-08-30T05:16:02;11.10;;;9.90;;
25497;SDS011;13406;53.380;7.226;2023-08-30T05:18:28;10.77;;;9.10;;
25497;SDS011;13406;53.380;7.226;2023-08-30T05:20:53;10.70;;;9.10;;
25497;SDS011;13406;53.380;7.226;2023-08-30T05:23:19;11.50;;;9.20;;
25497;SDS011;13406;53.380;7.226;2023-08-30T05:25:44;10.93;;;9.33;;
25497;SDS011;13406;53.380;7.226;2023-08-30T05:28:10;11.93;;;9.50;;
25497;SDS011;13406;53.380;7.226;2023-08-30T05:30:35;12.43;;;9.03;;
25497;SDS011;13406;53.380;7.226;2023-08-30T05:33:00;11.50;;;9.47;;
25497;SDS011;13406;53.380;7.226;2023-08-30T05:35:26;10.60;;;9.50;;
25497;SDS011;13406;53.380;7.226;2023-08-30T05:37:51;10.53;;;8.93;;
25497;SDS011;13406;53.380;7.226;2023-08-30T05:40:17;11.93;;;9.27;;
25497;SDS011;13406;53.380;7.226;2023-08-30T05:42:43;9.63;;;8.67;;
25497;SDS011;13406;53.380;7.226;2023-08-30T05:45:10;11.70;;;9.70;;
25497;SDS011;13406;53.380;7.226;2023-08-30T05:47:35;11.60;;;9.73;;
25497;SDS011;13406;53.380;7.226;2023-08-30T05:50:01;12.03;;;9.60;;
25497;SDS011;13406;53.380;7.226;2023-08-30T05:52:26;11.83;;;9.80;;
25497;SDS011;13406;53.380;7.226;2023-08-30T05:54:52;10.23;;;8.60;;
25497;SDS011;13406;53.380;7.226;2023-08-30T05:57:17;12.80;;;9.10;;
25497;SDS011;13406;53.380;7.226;2023-08-30T05:59:43;9.23;;;8.00;;
25497;SDS011;13406;53.380;7.226;2023-08-30T06:02:08;11.30;;;8.93;;
25497;SDS011;13406;53.380;7.226;2023-08-30T06:04:34;15.23;;;9.80;;
25497;SDS011;13406;53.380;7.226;2023-08-30T06:06:59;11.47;;;9.00;;
25497;SDS011;13406;53.380;7.226;2023-08-30T06:09:24;10.33;;;9.03;;
25497;SDS011;13406;53.380;7.226;2023-08-30T06:11:50;11.47;;;8.80;;
25497;SDS011;13406;53.380;7.226;2023-08-30T06:14:15;10.80;;;9.40;;
25497;SDS011;13406;53.380;7.226;2023-08-30T06:16:41;10.47;;;8.60;;
25497;SDS011;13406;53.380;7.226;2023-08-30T06:19:10;11.40;;;9.00;;
25497;SDS011;13406;53.380;7.226;2023-08-30T06:21:36;9.63;;;8.10;;
25497;SDS011;13406;53.380;7.226;2023-08-30T06:24:01;12.80;;;9.93;;
25497;SDS011;13406;53.380;7.226;2023-08-30T06:26:27;10.77;;;9.63;;
25497;SDS011;13406;53.380;7.226;2023-08-30T06:28:52;12.70;;;10.30;;
25497;SDS011;13406;53.380;7.226;2023-08-30T06:31:17;10.20;;;9.10;;
25497;SDS011;13406;53.380;7.226;2023-08-30T06:33:43;10.50;;;9.30;;
25497;SDS011;13406;53.380;7.226;2023-08-30T06:36:09;11.80;;;10.17;;
25497;SDS011;13406;53.380;7.226;2023-08-30T06:38:36;11.00;;;8.80;;
25497;SDS011;13406;53.380;7.226;2023-08-30T06:41:02;10.80;;;9.70;;
25497;SDS011;13406;53.380;7.226;2023-08-30T06:43:27;10.60;;;9.50;;
25497;SDS011;13406;53.380;7.226;2023-08-30T06:45:53;9.93;;;8.40;;
25497;SDS011;13406;53.380;7.226;2023-08-30T06:48:18;11.50;;;9.20;;
25497;SDS011;13406;53.380;7.226;2023-08-30T06:50:44;9.63;;;8.60;;
25497;SDS011;13406;53.380;7.226;2023-08-30T06:53:09;9.97;;;8.00;;
25497;SDS011;13406;53.380;7.226;2023-08-30T06:55:35;9.90;;;8.30;;
25497;SDS011;13406;53.380;7.226;2023-08-30T06:58:01;9.43;;;7.90;;
25497;SDS011;13406;53.380;7.226;2023-08-30T07:00:27;9.53;;;7.93;;
25497;SDS011;13406;53.380;7.226;2023-08-30T07:02:53;12.47;;;8.43;;
25497;SDS011;13406;53.380;7.226;2023-08-30T07:05:19;9.17;;;8.13;;
25497;SDS011;13406;53.380;7.226;2023-08-30T07:07:44;9.60;;;7.97;;
25497;SDS011;13406;53.380;7.226;2023-08-30T07:10:09;10.70;;;8.00;;
25497;SDS011;13406;53.380;7.226;2023-08-30T07:12:35;11.83;;;8.23;;
25497;SDS011;13406;53.380;7.226;2023-08-30T07:15:00;12.13;;;7.90;;
25497;SDS011;13406;53.380;7.226;2023-08-30T07:17:28;11.80;;;9.07;;
25497;SDS011;13406;53.380;7.226;2023-08-30T07:19:53;10.43;;;8.27;;
25497;SDS011;13406;53.380;7.226;2023-08-30T07:22:19;13.70;;;8.63;;
25497;SDS011;13406;53.380;7.226;2023-08-30T07:24:45;10.83;;;7.50;;
25497;SDS011;13406;53.380;7.226;2023-08-30T07:27:10;9.60;;;8.27;;
25497;SDS011;13406;53.380;7.226;2023-08-30T07:29:37;13.63;;;9.37;;
25497;SDS011;13406;53.380;7.226;2023-08-30T07:32:05;15.33;;;9.30;;
25497;SDS011;13406;53.380;7.226;2023-08-30T07:34:30;12.70;;;8.93;;
25497;SDS011;13406;53.380;7.226;2023-08-30T07:36:56;11.13;;;9.10;;
25497;SDS011;13406;53.380;7.226;2023-08-30T07:39:21;9.87;;;8.10;;
25497;SDS011;13406;53.380;7.226;2023-08-30T07:41:47;12.37;;;8.80;;
25497;SDS011;13406;53.380;7.226;2023-08-30T07:44:12;13.53;;;10.23;;
25497;SDS011;13406;53.380;7.226;2023-08-30T07:46:38;11.60;;;9.30;;
25497;SDS011;13406;53.380;7.226;2023-08-30T07:49:03;12.97;;;10.50;;
25497;SDS011;13406;53.380;7.226;2023-08-30T07:51:29;11.60;;;9.30;;
25497;SDS011;13406;53.380;7.226;2023-08-30T07:53:54;13.57;;;9.63;;
25497;SDS011;13406;53.380;7.226;2023-08-30T07:56:19;13.37;;;9.73;;
25497;SDS011;13406;53.380;7.226;2023-08-30T07:58:45;15.80;;;11.20;;
25497;SDS011;13406;53.380;7.226;2023-08-30T08:01:10;12.70;;;9.17;;
25497;SDS011;13406;53.380;7.226;2023-08-30T08:03:36;13.33;;;10.00;;
25497;SDS011;13406;53.380;7.226;2023-08-30T08:06:01;12.50;;;9.23;;
25497;SDS011;13406;53.380;7.226;2023-08-30T08:08:27;12.83;;;9.03;;
25497;SDS011;13406;53.380;7.226;2023-08-30T08:10:52;13.07;;;8.37;;
25497;SDS011;13406;53.380;7.226;2023-08-30T08:13:17;12.10;;;9.80;;
25497;SDS011;13406;53.380;7.226;2023-08-30T08:15:43;13.47;;;9.60;;
25497;SDS011;13406;53.380;7.226;2023-08-30T08:18:09;12.70;;;9.53;;
25497;SDS011;13406;53.380;7.226;2023-08-30T08:20:35;10.50;;;8.30;;
25497;SDS011;13406;53.380;7.226;2023-08-30T08:23:02;12.77;;;10.27;;
25497;SDS011;13406;53.380;7.226;2023-08-30T08:25:28;12.03;;;9.07;;
25497;SDS011;13406;53.380;7.226;2023-08-30T08:27:53;12.83;;;9.50;;
25497;SDS011;13406;53.380;7.226;2023-08-30T08:30:19;12.80;;;10.00;;
25497;SDS011;13406;53.380;7.226;2023-08-30T08:32:45;11.03;;;9.00;;
25497;SDS011;13406;53.380;7.226;2023-08-30T08:35:14;10.87;;;8.20;;
25497;SDS011;13406;53.380;7.226;2023-08-30T08:37:40;13.80;;;9.23;;
25497;SDS011;13406;53.380;7.226;2023-08-30T08:40:05;12.60;;;9.80;;
25497;SDS011;13406;53.380;7.226;2023-08-30T08:42:34;14.70;;;10.40;;
25497;SDS011;13406;53.380;7.226;2023-08-30T08:45:01;13.40;;;9.30;;
25497;SDS011;13406;53.380;7.226;2023-08-30T08:47:29;14.83;;;11.03;;
25497;SDS011;13406;53.380;7.226;2023-08-30T08:49:56;13.37;;;9.20;;
25497;SDS011;13406;53.380;7.226;2023-08-30T08:52:21;9.80;;;8.07;;
25497;SDS011;13406;53.380;7.226;2023-08-30T08:54:48;12.30;;;9.70;;
25497;SDS011;13406;53.380;7.226;2023-08-30T08:57:14;13.40;;;9.83;;
25497;SDS011;13406;53.380;7.226;2023-08-30T08:59:40;16.13;;;10.27;;
25497;SDS011;13406;53.380;7.226;2023-08-30T09:02:05;12.20;;;9.00;;
25497;SDS011;13406;53.380;7.226;2023-08-30T09:04:32;11.53;;;8.50;;
25497;SDS011;13406;53.380;7.226;2023-08-30T09:06:58;10.83;;;8.87;;
25497;SDS011;13406;53.380;7.226;2023-08-30T09:09:24;12.83;;;9.53;;
25497;SDS011;13406;53.380;7.226;2023-08-30T09:11:50;12.30;;;9.60;;
25497;SDS011;13406;53.380;7.226;2023-08-30T09:14:15;12.90;;;8.73;;
25497;SDS011;13406;53.380;7.226;2023-08-30T09:16:41;14.00;;;10.17;;
25497;SDS011;13406;53.380;7.226;2023-08-30T09:19:06;12.30;;;8.67;;
25497;SDS011;13406;53.380;7.226;2023-08-30T09:21:32;11.93;;;9.37;;
25497;SDS011;13406;53.380;7.226;2023-08-30T09:26:24;11.50;;;8.70;;
25497;SDS011;13406;53.380;7.226;2023-08-30T09:28:49;12.87;;;9.47;;
25497;SDS011;13406;53.380;7.226;2023-08-30T09:31:18;14.60;;;10.37;;
25497;SDS011;13406;53.380;7.226;2023-08-30T09:33:47;12.33;;;9.70;;
25497;SDS011;13406;53.380;7.226;2023-08-30T09:36:15;12.43;;;9.80;;
25497;SDS011;13406;53.380;7.226;2023-08-30T09:38:41;11.00;;;9.07;;
25497;SDS011;13406;53.380;7.226;2023-08-30T09:41:12;13.53;;;9.70;;
25497;SDS011;13406;53.380;7.226;2023-08-30T09:43:41;11.33;;;8.80;;
25497;SDS011;13406;53.380;7.226;2023-08-30T09:46:08;14.13;;;10.83;;
25497;SDS011;13406;53.380;7.226;2023-08-30T09:48:34;12.57;;;10.10;;
25497;SDS011;13406;53.380;7.226;2023-08-30T09:50:59;13.90;;;10.73;;
25497;SDS011;13406;53.380;7.226;2023-08-30T09:53:28;14.13;;;11.47;;
25497;SDS011;13406;53.380;7.226;2023-08-30T09:55:58;14.43;;;10.83;;
25497;SDS011;13406;53.380;7.226;2023-08-30T09:58:24;14.50;;;10.77;;
25497;SDS011;13406;53.380;7.226;2023-08-30T10:00:52;20.40;;;12.17;;
25497;SDS011;13406;53.380;7.226;2023-08-30T10:03:18;15.17;;;11.23;;
25497;SDS011;13406;53.380;7.226;2023-08-30T10:05:44;17.57;;;11.93;;
25497;SDS011;13406;53.380;7.226;2023-08-30T10:08:10;20.73;;;12.33;;
25497;SDS011;13406;53.380;7.226;2023-08-30T10:10:38;16.33;;;12.57;;
25497;SDS011;13406;53.380;7.226;2023-08-30T10:13:05;14.60;;;12.30;;
25497;SDS011;13406;53.380;7.226;2023-08-30T10:15:30;17.70;;;11.77;;
25497;SDS011;13406;53.380;7.226;2023-08-30T10:18:01;15.90;;;11.43;;
25497;SDS011;13406;53.380;7.226;2023-08-30T10:20:28;18.43;;;12.60;;
25497;SDS011;13406;53.380;7.226;2023-08-30T10:22:53;15.00;;;11.27;;
25497;SDS011;13406;53.380;7.226;2023-08-30T10:25:22;15.13;;;10.53;;
25497;SDS011;13406;53.380;7.226;2023-08-30T10:27:51;16.37;;;10.87;;
25497;SDS011;13406;53.380;7.226;2023-08-30T10:30:19;13.37;;;10.50;;
25497;SDS011;13406;53.380;7.226;2023-08-30T10:32:46;11.97;;;9.37;;
25497;SDS011;13406;53.380;7.226;2023-08-30T10:35:12;16.27;;;10.80;;
25497;SDS011;13406;53.380;7.226;2023-08-30T10:37:38;14.93;;;10.70;;
25497;SDS011;13406;53.380;7.226;2023-08-30T10:40:04;18.07;;;10.47;;
25497;SDS011;13406;53.380;7.226;2023-08-30T10:42:31;12.70;;;8.83;;
25497;SDS011;13406;53.380;7.226;2023-08-30T10:47:30;11.07;;;8.43;;
25497;SDS011;13406;53.380;7.226;2023-08-30T10:49:59;14.07;;;10.13;;
25497;SDS011;13406;53.380;7.226;2023-08-30T10:52:26;11.47;;;8.23;;
25497;SDS011;13406;53.380;7.226;2023-08-30T10:55:03;11.73;;;8.27;;
25497;SDS011;13406;53.380;7.226;2023-08-30T10:57:33;11.63;;;7.40;;
25497;SDS011;13406;53.380;7.226;2023-08-30T11:02:48;11.10;;;7.23;;
25497;SDS011;13406;53.380;7.226;2023-08-30T11:05:15;9.80;;;6.43;;
25497;SDS011;13406;53.380;7.226;2023-08-30T11:07:45;7.93;;;5.90;;
25497;SDS011;13406;53.380;7.226;2023-08-30T11:10:11;9.13;;;7.20;;
25497;SDS011;13406;53.380;7.226;2023-08-30T11:12:39;11.27;;;6.73;;
25497;SDS011;13406;53.380;7.226;2023-08-30T11:15:09;10.70;;;7.83;;
25497;SDS011;13406;53.380;7.226;2023-08-30T11:17:36;9.17;;;6.80;;
25497;SDS011;13406;53.380;7.226;2023-08-30T11:22:44;8.90;;;6.20;;
25497;SDS011;13406;53.380;7.226;2023-08-30T11:25:11;9.80;;;7.70;;
25497;SDS011;13406;53.380;7.226;2023-08-30T11:27:38;8.80;;;6.80;;
25497;SDS011;13406;53.380;7.226;2023-08-30T11:30:04;12.67;;;8.23;;
25497;SDS011;13406;53.380;7.226;2023-08-30T11:32:38;10.07;;;7.87;;
25497;SDS011;13406;53.380;7.226;2023-08-30T11:35:05;13.13;;;7.43;;
25497;SDS011;13406;53.380;7.226;2023-08-30T11:37:31;11.50;;;7.40;;
25497;SDS011;13406;53.380;7.226;2023-08-30T11:39:57;10.00;;;7.60;;
25497;SDS011;13406;53.380;7.226;2023-08-30T11:42:24;9.80;;;5.50;;
25497;SDS011;13406;53.380;7.226;2023-08-30T11:44:50;8.80;;;5.30;;
25497;SDS011;13406;53.380;7.226;2023-08-30T11:47:23;7.23;;;5.20;;
25497;SDS011;13406;53.380;7.226;2023-08-30T11:49:49;7.10;;;4.10;;
25497;SDS011;13406;53.380;7.226;2023-08-30T11:52:17;7.63;;;5.03;;
25497;SDS011;13406;53.380;7.226;2023-08-30T11:54:45;7.17;;;4.90;;
25497;SDS011;13406;53.380;7.226;2023-08-30T11:57:13;8.03;;;5.70;;
25497;SDS011;13406;53.380;7.226;2023-08-30T11:59:38;10.20;;;6.53;;
25497;SDS011;13406;53.380;7.226;2023-08-30T12:02:04;8.70;;;6.17;;
25497;SDS011;13406;53.380;7.226;2023-08-30T12:04:32;8.03;;;6.07;;
25497;SDS011;13406;53.380;7.226;2023-08-30T12:06:57;10.40;;;7.27;;
25497;SDS011;13406;53.380;7.226;2023-08-30T12:09:29;10.70;;;6.60;;
25497;SDS011;13406;53.380;7.226;2023-08-30T12:12:04;9.20;;;6.00;;
25497;SDS011;13406;53.380;7.226;2023-08-30T12:14:37;9.40;;;6.40;;
25497;SDS011;13406;53.380;7.226;2023-08-30T12:17:03;10.30;;;7.53;;
25497;SDS011;13406;53.380;7.226;2023-08-30T12:19:29;9.83;;;6.27;;
25497;SDS011;13406;53.380;7.226;2023-08-30T12:21:54;8.73;;;5.40;;
25497;SDS011;13406;53.380;7.226;2023-08-30T12:24:20;8.87;;;6.47;;
25497;SDS011;13406;53.380;7.226;2023-08-30T12:26:46;9.30;;;5.80;;
25497;SDS011;13406;53.380;7.226;2023-08-30T12:29:11;9.70;;;5.57;;
25497;SDS011;13406;53.380;7.226;2023-08-30T12:31:37;8.47;;;5.10;;
25497;SDS011;13406;53.380;7.226;2023-08-30T12:34:02;8.13;;;3.93;;
25497;SDS011;13406;53.380;7.226;2023-08-30T12:36:28;7.17;;;4.40;;
25497;SDS011;13406;53.380;7.226;2023-08-30T12:38:54;6.87;;;3.57;;
25497;SDS011;13406;53.380;7.226;2023-08-30T12:41:20;5.83;;;3.90;;
25497;SDS011;13406;53.380;7.226;2023-08-30T12:43:48;5.80;;;3.60;;
25497;SDS011;13406;53.380;7.226;2023-08-30T12:46:13;5.43;;;3.40;;
25497;SDS011;13406;53.380;7.226;2023-08-30T12:48:38;7.70;;;3.43;;
25497;SDS011;13406;53.380;7.226;2023-08-30T12:51:04;8.10;;;5.03;;
25497;SDS011;13406;53.380;7.226;2023-08-30T12:53:29;7.20;;;5.17;;
25497;SDS011;13406;53.380;7.226;2023-08-30T12:55:55;7.93;;;5.27;;
25497;SDS011;13406;53.380;7.226;2023-08-30T12:58:20;9.33;;;6.27;;
25497;SDS011;13406;53.380;7.226;2023-08-30T13:00:46;8.00;;;5.93;;
25497;SDS011;13406;53.380;7.226;2023-08-30T13:03:12;9.90;;;6.30;;
25497;SDS011;13406;53.380;7.226;2023-08-30T13:05:37;10.20;;;5.90;;
25497;SDS011;13406;53.380;7.226;2023-08-30T13:08:02;8.97;;;6.20;;
25497;SDS011;13406;53.380;7.226;2023-08-30T13:10:28;7.80;;;5.23;;
25497;SDS011;13406;53.380;7.226;2023-08-30T13:12:54;8.97;;;5.40;;
25497;SDS011;13406;53.380;7.226;2023-08-30T13:15:20;5.97;;;4.47;;
25497;SDS011;13406;53.380;7.226;2023-08-30T13:17:46;7.03;;;4.53;;
25497;SDS011;13406;53.380;7.226;2023-08-30T13:20:11;7.77;;;5.40;;
25497;SDS011;13406;53.380;7.226;2023-08-30T13:22:37;6.50;;;4.67;;
25497;SDS011;13406;53.380;7.226;2023-08-30T13:25:02;8.03;;;5.27;;
25497;SDS011;13406;53.380;7.226;2023-08-30T13:27:29;8.20;;;6.13;;
25497;SDS011;13406;53.380;7.226;2023-08-30T13:29:55;9.93;;;5.97;;
25497;SDS011;13406;53.380;7.226;2023-08-30T13:32:20;7.90;;;6.10;;
25497;SDS011;13406;53.380;7.226;2023-08-30T13:34:45;8.07;;;5.53;;
25497;SDS011;13406;53.380;7.226;2023-08-30T13:37:12;7.37;;;4.63;;
25497;SDS011;13406;53.380;7.226;2023-08-30T13:39:41;6.40;;;4.50;;
25497;SDS011;13406;53.380;7.226;2023-08-30T13:42:06;7.10;;;5.13;;
25497;SDS011;13406;53.380;7.226;2023-08-30T13:44:32;5.90;;;4.23;;
25497;SDS011;13406;53.380;7.226;2023-08-30T13:47:00;6.20;;;4.93;;
25497;SDS011;13406;53.380;7.226;2023-08-30T13:49:25;6.50;;;4.57;;
25497;SDS011;13406;53.380;7.226;2023-08-30T13:51:52;8.37;;;6.23;;
25497;SDS011;13406;53.380;7.226;2023-08-30T13:54:18;9.07;;;6.13;;
25497;SDS011;13406;53.380;7.226;2023-08-30T13:56:43;6.67;;;5.10;;
25497;SDS011;13406;53.380;7.226;2023-08-30T13:59:08;7.93;;;6.40;;
25497;SDS011;13406;53.380;7.226;2023-08-30T14:01:34;8.40;;;7.50;;
25497;SDS011;13406;53.380;7.226;2023-08-30T14:04:02;6.33;;;5.37;;
25497;SDS011;13406;53.380;7.226;2023-08-30T14:06:30;8.13;;;6.40;;
25497;SDS011;13406;53.380;7.226;2023-08-30T14:08:56;8.30;;;6.57;;
25497;SDS011;13406;53.380;7.226;2023-08-30T14:11:21;9.17;;;6.10;;
25497;SDS011;13406;53.380;7.226;2023-08-30T14:13:47;10.07;;;7.50;;
25497;SDS011;13406;53.380;7.226;2023-08-30T14:16:13;9.77;;;8.50;;
25497;SDS011;13406;53.380;7.226;2023-08-30T14:18:38;8.67;;;7.77;;
25497;SDS011;13406;53.380;7.226;2023-08-30T14:21:04;8.93;;;7.13;;
25497;SDS011;13406;53.380;7.226;2023-08-30T14:23:29;9.80;;;7.57;;
25497;SDS011;13406;53.380;7.226;2023-08-30T14:25:58;10.73;;;9.63;;
25497;SDS011;13406;53.380;7.226;2023-08-30T14:28:25;10.17;;;8.67;;
25497;SDS011;13406;53.380;7.226;2023-08-30T14:30:51;9.83;;;8.80;;
25497;SDS011;13406;53.380;7.226;2023-08-30T14:33:16;10.50;;;9.30;;
25497;SDS011;13406;53.380;7.226;2023-08-30T14:35:42;9.10;;;8.17;;
25497;SDS011;13406;53.380;7.226;2023-08-30T14:38:08;12.47;;;10.30;;
25497;SDS011;13406;53.380;7.226;2023-08-30T14:40:33;9.70;;;8.70;;
25497;SDS011;13406;53.380;7.226;2023-08-30T14:42:59;11.40;;;10.27;;
25497;SDS011;13406;53.380;7.226;2023-08-30T14:45:24;10.57;;;8.93;;
25497;SDS011;13406;53.380;7.226;2023-08-30T14:47:50;8.37;;;6.97;;